Time;durP1;ratioP1;P1;durP2;ratioP2;P2;SDS_P1;SDS_P2;PMS_P1;PMS_P2;Temp;Humidity;BMP_temperature;BMP_pressure;BME280_temperature;BME280_humidity;BME280_pressure;Samples;Min_cycle;Max_cycle;Signal;HPM_P1;HPM_P2
2022/03/08 07:04:40;;;;;;;5.18;4.10;;;;;;;;;;10585865;27;20401;-81
2022/03/08 07:09:42;;;;;;;4.93;3.45;;;;;;;;;;10568184;28;20055;-81
2022/03/08 07:20:49;;;;;;;4.88;3.53;;;;;;;;;;10610138;28;20035;-79
2022/03/08 07:25:52;;;;;;;7.38;5.13;;;;;;;;;;10589256;28;20032;-80
2022/03/08 07:36:15;;;;;;;4.75;4.20;;;;;;;;;;10612007;28;19904;-79
2022/03/08 07:41:16;;;;;;;7.68;5.38;;;;;;;;;;10574200;28;20031;-82
2022/03/08 07:46:17;;;;;;;6.63;5.70;;;;;;;;;;10603832;28;20039;-80
2022/03/08 07:51:18;;;;;;;5.90;4.50;;;;;;;;;;10590186;28;20024;-80
2022/03/08 07:56:19;;;;;;;7.10;5.55;;;;;;;;;;10584659;28;20028;-80
2022/03/08 08:01:20;;;;;;;4.25;3.28;;;;;;;;;;10584886;28;20035;-81
2022/03/08 08:06:21;;;;;;;5.20;3.67;;;;;;;;;;10584774;28;20027;-80
2022/03/08 08:11:22;;;;;;;8.05;4.88;;;;;;;;;;10582962;28;20394;-81
2022/03/08 08:16:23;;;;;;;8.05;6.35;;;;;;;;;;10560399;28;20057;-80
2022/03/08 08:21:24;;;;;;;9.30;5.85;;;;;;;;;;10558605;28;20020;-80
2022/03/08 08:26:27;;;;;;;;;;;;;;;;;;10559915;28;20036;-80
2022/03/08 08:31:30;;;;;;;8.13;5.55;;;;;;;;;;10555714;28;19967;-80
2022/03/08 08:36:31;;;;;;;9.18;6.97;;;;;;;;;;10555554;28;20020;-81
2022/03/08 08:41:32;;;;;;;;;;;;;;;;;;10553552;28;20413;-79
2022/03/08 08:46:33;;;;;;;5.73;4.23;;;;;;;;;;10555039;28;19911;-80
2022/03/08 08:51:34;;;;;;;7.00;5.07;;;;;;;;;;10555178;28;20032;-81
2022/03/08 08:56:35;;;;;;;7.82;5.88;;;;;;;;;;10556639;28;20024;-79
2022/03/08 09:01:36;;;;;;;;;;;;;;;;;;10555323;28;20062;-80
2022/03/08 09:06:37;;;;;;;5.97;4.22;;;;;;;;;;10555958;28;19910;-80
2022/03/08 09:11:38;;;;;;;8.90;5.80;;;;;;;;;;10556792;28;20040;-81
2022/03/08 09:16:41;;;;;;;6.70;5.85;;;;;;;;;;10553768;28;20032;-79
2022/03/08 09:21:42;;;;;;;9.05;5.28;;;;;;;;;;10554766;28;20161;-80
2022/03/08 09:26:45;;;;;;;11.30;7.00;;;;;;;;;;10560519;28;20153;-81
2022/03/08 09:37:40;;;;;;;7.05;5.00;;;;;;;;;;10559514;28;20145;-81
2022/03/08 09:42:41;;;;;;;13.60;10.63;;;;;;;;;;10557074;28;20032;-80
2022/03/08 09:47:42;;;;;;;6.65;4.38;;;;;;;;;;10552212;28;20032;-81
2022/03/08 09:52:43;;;;;;;;;;;;;;;;;;10550296;28;20099;-80
2022/03/08 09:57:44;;;;;;;7.95;6.60;;;;;;;;;;10549079;28;19956;-78
2022/03/08 10:02:52;;;;;;;5.63;4.88;;;;;;;;;;10551487;28;20043;-80
2022/03/08 10:08:10;;;;;;;6.18;4.72;;;;;;;;;;10549636;28;20042;-79
2022/03/08 10:13:12;;;;;;;5.63;4.32;;;;;;;;;;10551404;28;20470;-79
2022/03/08 10:18:13;;;;;;;8.32;5.22;;;;;;;;;;10552916;28;20366;-79
2022/03/08 10:23:14;;;;;;;4.63;3.83;;;;;;;;;;10545262;28;20028;-80
2022/03/08 10:33:37;;;;;;;5.38;4.68;;;;;;;;;;10550161;28;19912;-82
2022/03/08 10:38:39;;;;;;;6.10;4.78;;;;;;;;;;10545418;28;20024;-80
2022/03/08 10:43:49;;;;;;;5.95;4.40;;;;;;;;;;10545326;28;20055;-81
2022/03/08 10:48:52;;;;;;;5.78;3.97;;;;;;;;;;10544776;28;20112;-80
2022/03/08 10:54:10;;;;;;;5.93;4.18;;;;;;;;;;10544217;28;20339;-79
2022/03/08 10:59:15;;;;;;;6.93;4.38;;;;;;;;;;10545310;28;20119;-81
2022/03/08 11:04:20;;;;;;;7.45;5.43;;;;;;;;;;10544606;28;20033;-79
2022/03/08 11:09:22;;;;;;;5.05;3.75;;;;;;;;;;10558080;28;20111;-80
2022/03/08 11:14:24;;;;;;;5.63;4.47;;;;;;;;;;10562055;28;20035;-79
2022/03/08 11:19:26;;;;;;;6.07;4.40;;;;;;;;;;10534430;28;20033;-78
2022/03/08 11:24:27;;;;;;;6.70;5.00;;;;;;;;;;10544559;28;20053;-79
2022/03/08 11:29:29;;;;;;;4.43;2.42;;;;;;;;;;10554306;28;20054;-78
2022/03/08 11:34:40;;;;;;;7.82;5.30;;;;;;;;;;10549051;28;20024;-79
2022/03/08 11:39:43;;;;;;;5.93;4.43;;;;;;;;;;10554476;28;20390;-79
2022/03/08 11:44:57;;;;;;;7.55;4.90;;;;;;;;;;10565566;28;20082;-78
2022/03/08 11:49:58;;;;;;;5.75;3.65;;;;;;;;;;10561903;28;20024;-79
2022/03/08 11:55:06;;;;;;;6.05;3.67;;;;;;;;;;10566485;28;20320;-78
2022/03/08 12:00:26;;;;;;;8.75;5.70;;;;;;;;;;10562281;28;20070;-78
2022/03/08 12:05:43;;;;;;;4.25;3.22;;;;;;;;;;10550028;28;20130;-78
2022/03/08 12:10:44;;;;;;;5.25;4.10;;;;;;;;;;10546589;28;20081;-77
2022/03/08 12:16:04;;;;;;;5.15;4.00;;;;;;;;;;10547594;28;20542;-78
2022/03/08 12:21:17;;;;;;;4.97;3.35;;;;;;;;;;10552931;28;20032;-80
2022/03/08 12:26:23;;;;;;;4.50;3.53;;;;;;;;;;10553600;28;20028;-78
2022/03/08 12:31:24;;;;;;;6.55;3.47;;;;;;;;;;10555006;28;20021;-78
2022/03/08 12:36:27;;;;;;;4.43;3.30;;;;;;;;;;10553033;28;20060;-78
2022/03/08 12:41:28;;;;;;;4.28;3.53;;;;;;;;;;10555194;28;20077;-79
2022/03/08 12:46:29;;;;;;;4.28;3.35;;;;;;;;;;10572769;28;20032;-80
2022/03/08 12:51:30;;;;;;;;;;;;;;;;;;10564794;28;20107;-79
2022/03/08 12:56:31;;;;;;;3.95;3.20;;;;;;;;;;10553811;28;19934;-79
2022/03/08 13:01:32;;;;;;;;;;;;;;;;;;10551762;28;20040;-79
2022/03/08 13:06:34;;;;;;;7.55;5.03;;;;;;;;;;10548665;28;20376;-79
2022/03/08 13:11:37;;;;;;;4.15;2.75;;;;;;;;;;10552862;28;20119;-81
2022/03/08 13:16:38;;;;;;;4.47;3.17;;;;;;;;;;10552536;28;20016;-79
2022/03/08 13:21:40;;;;;;;4.95;3.10;;;;;;;;;;10551776;28;20029;-79
2022/03/08 13:26:50;;;;;;;4.22;3.20;;;;;;;;;;10552098;28;20031;-79
2022/03/08 13:31:53;;;;;;;4.75;2.55;;;;;;;;;;10454678;22;20038;-82
2022/03/08 13:36:59;;;;;;;6.07;3.08;;;;;;;;;;10409160;28;20065;-82
2022/03/08 13:42:00;;;;;;;12.45;8.88;;;;;;;;;;10383808;28;20515;-83
2022/03/08 13:47:01;;;;;;;;;;;;;;;;;;10386180;28;20113;-82
2022/03/08 13:52:24;;;;;;;3.70;2.95;;;;;;;;;;10385443;28;19913;-81
2022/03/08 13:57:53;;;;;;;4.15;2.85;;;;;;;;;;10382300;28;20026;-83
2022/03/08 14:03:12;;;;;;;4.38;2.67;;;;;;;;;;10365689;28;20133;-82
2022/03/08 14:08:25;;;;;;;2.90;2.17;;;;;;;;;;10382954;28;20037;-82
2022/03/08 14:13:36;;;;;;;4.43;2.50;;;;;;;;;;10365972;28;20050;-82
2022/03/08 14:19:00;;;;;;;4.50;2.10;;;;;;;;;;10380984;28;20023;-82
2022/03/08 14:24:13;;;;;;;3.15;2.42;;;;;;;;;;10379953;28;20035;-82
2022/03/08 14:29:16;;;;;;;5.55;2.33;;;;;;;;;;10380802;28;20113;-82
2022/03/08 14:34:33;;;;;;;3.47;2.78;;;;;;;;;;10379588;28;20031;-81
2022/03/08 14:45:03;;;;;;;3.05;2.08;;;;;;;;;;10362001;28;20030;-81
2022/03/08 14:50:11;;;;;;;4.28;2.17;;;;;;;;;;10364219;28;20045;-80
2022/03/08 14:55:14;;;;;;;3.20;2.33;;;;;;;;;;10379335;28;20094;-81
2022/03/08 15:00:26;;;;;;;3.85;2.38;;;;;;;;;;10372036;28;20037;-81
2022/03/08 15:05:38;;;;;;;3.17;2.65;;;;;;;;;;10366814;28;20082;-82
2022/03/08 15:10:47;;;;;;;4.10;2.70;;;;;;;;;;10366486;28;20049;-81
2022/03/08 15:21:27;;;;;;;4.55;2.95;;;;;;;;;;10361516;28;20050;-81
2022/03/08 15:26:31;;;;;;;4.35;2.70;;;;;;;;;;10384978;28;20464;-81
2022/03/08 15:31:33;;;;;;;4.88;2.63;;;;;;;;;;10385187;28;20116;-81
2022/03/08 15:36:34;;;;;;;3.28;2.35;;;;;;;;;;10383547;28;20022;-80
2022/03/08 15:41:36;;;;;;;3.10;2.28;;;;;;;;;;10383284;28;20116;-81
2022/03/08 15:46:39;;;;;;;6.68;2.83;;;;;;;;;;10368224;28;20030;-82
2022/03/08 15:52:00;;;;;;;18.75;11.77;;;;;;;;;;10369586;28;20058;-81
2022/03/08 15:57:07;;;;;;;7.95;5.45;;;;;;;;;;10387726;28;20027;-80
2022/03/08 16:02:10;;;;;;;9.75;6.38;;;;;;;;;;10385122;28;20069;-82
2022/03/08 16:07:15;;;;;;;8.80;5.00;;;;;;;;;;10384073;28;20436;-81
2022/03/08 16:12:26;;;;;;;6.80;4.63;;;;;;;;;;10368221;28;20026;-81
2022/03/08 16:17:34;;;;;;;9.13;5.18;;;;;;;;;;10384609;28;20033;-81
2022/03/08 16:23:02;;;;;;;6.00;4.05;;;;;;;;;;10386668;28;20037;-80
2022/03/08 16:28:56;;;;;;;6.28;3.92;;;;;;;;;;10368308;28;20039;-81
2022/03/08 16:34:10;;;;;;;5.50;3.90;;;;;;;;;;10368525;28;20111;-80
2022/03/08 16:39:34;;;;;;;6.30;4.53;;;;;;;;;;10390618;28;20031;-80
2022/03/08 16:46:06;;;;;;;;;;;;;;;;;;;;;
2022/03/08 16:51:02;;;;;;;6.13;3.85;;;;;;;;;;10348952;28;20018;-80
2022/03/08 16:56:11;;;;;;;6.93;4.22;;;;;;;;;;10396956;28;20022;-81
2022/03/08 17:01:31;;;;;;;4.50;3.03;;;;;;;;;;10398164;28;20014;-81
2022/03/08 17:06:39;;;;;;;4.32;3.20;;;;;;;;;;10396528;28;20014;-82
2022/03/08 17:11:40;;;;;;;5.45;3.92;;;;;;;;;;10383152;28;20075;-81
2022/03/08 17:16:42;;;;;;;6.40;4.75;;;;;;;;;;10384262;28;20053;-81
